AEE23R LGSK-LGAV
Flight info
| Callsign | AEE23R |
|---|---|
| Flight time | 0h 24m |
| Altitude | 19000 |
| Route | SIGFO M749 ROPOX |
| Aircraft | A320/M-SDE3FGHIRWY/LB1 |
Departure
| Time | 2026-04-21 12:26 |
|---|---|
| Airport | Skiathos Island National Airport (LGSK) |
Arrival
| Time | 2026-04-21 12:51 |
|---|---|
| Airport | Athens Eleftherios Venizelos International Airport (LGAV) |
| Time | Latitude | Longitude | Altitude | Speed | Heading |
|---|---|---|---|---|---|
| 2026-04-21 12:06 | 39.17797 | 23.50180 | 38 ft | 0 kts | 289° |
| 2026-04-21 12:07 | 39.17797 | 23.50181 | 39 ft | 0 kts | 289° |
| 2026-04-21 12:19 | 39.17793 | 23.50195 | 38 ft | 4 kts | 289° |
| 2026-04-21 12:19 | 39.17785 | 23.50229 | 39 ft | 4 kts | 283° |
| 2026-04-21 12:20 | 39.17781 | 23.50258 | 39 ft | 3 kts | 276° |
| 2026-04-21 12:20 | 39.17783 | 23.50289 | 37 ft | 4 kts | 233° |
| 2026-04-21 12:20 | 39.17803 | 23.50309 | 39 ft | 4 kts | 202° |
| 2026-04-21 12:20 | 39.17824 | 23.50319 | 39 ft | 2 kts | 200° |
| 2026-04-21 12:21 | 39.17825 | 23.50319 | 39 ft | 1 kts | 200° |
| 2026-04-21 12:23 | 39.17784 | 23.50300 | 40 ft | 9 kts | 199° |
| 2026-04-21 12:23 | 39.17713 | 23.50286 | 40 ft | 12 kts | 155° |
| 2026-04-21 12:23 | 39.17657 | 23.50343 | 40 ft | 12 kts | 192° |
| 2026-04-21 12:24 | 39.17563 | 23.50301 | 38 ft | 17 kts | 199° |
| 2026-04-21 12:24 | 39.17440 | 23.50247 | 35 ft | 20 kts | 199° |
| 2026-04-21 12:24 | 39.17288 | 23.50178 | 29 ft | 27 kts | 199° |
| 2026-04-21 12:24 | 39.17132 | 23.50109 | 21 ft | 18 kts | 199° |
| 2026-04-21 12:25 | 39.17049 | 23.50049 | 18 ft | 13 kts | 226° |
| 2026-04-21 12:25 | 39.17017 | 23.50069 | 16 ft | 5 kts | 36° |
| 2026-04-21 12:25 | 39.17052 | 23.50074 | 18 ft | 5 kts | 16° |
| 2026-04-21 12:25 | 39.17062 | 23.50079 | 18 ft | 0 kts | 18° |
| 2026-04-21 12:26 | 39.17131 | 23.50111 | 21 ft | 42 kts | 20° |
| 2026-04-21 12:26 | 39.17648 | 23.50339 | 40 ft | 113 kts | 18° |
| 2026-04-21 12:26 | 39.18547 | 23.50734 | 239 ft | 146 kts | 19° |
| 2026-04-21 12:26 | 39.19509 | 23.51152 | 881 ft | 145 kts | 21° |
| 2026-04-21 12:27 | 39.20472 | 23.51572 | 1382 ft | 147 kts | 18° |
| 2026-04-21 12:27 | 39.21460 | 23.52001 | 1817 ft | 156 kts | 17° |
| 2026-04-21 12:27 | 39.22554 | 23.52502 | 2084 ft | 178 kts | 26° |
| 2026-04-21 12:27 | 39.23463 | 23.53692 | 2324 ft | 201 kts | 69° |
| 2026-04-21 12:28 | 39.23575 | 23.55526 | 2580 ft | 217 kts | 111° |
| 2026-04-21 12:28 | 39.22679 | 23.57067 | 3037 ft | 221 kts | 147° |
| 2026-04-21 12:28 | 39.21210 | 23.57848 | 3381 ft | 240 kts | 174° |
| 2026-04-21 12:28 | 39.19484 | 23.58160 | 3976 ft | 257 kts | 175° |
| 2026-04-21 12:29 | 39.17682 | 23.58479 | 4857 ft | 264 kts | 176° |
| 2026-04-21 12:29 | 39.15840 | 23.58807 | 5741 ft | 271 kts | 176° |
| 2026-04-21 12:29 | 39.13978 | 23.59140 | 6586 ft | 277 kts | 176° |
| 2026-04-21 12:29 | 39.12053 | 23.59487 | 7437 ft | 282 kts | 176° |
| 2026-04-21 12:30 | 39.10094 | 23.59841 | 8303 ft | 287 kts | 176° |
| 2026-04-21 12:30 | 39.08101 | 23.60199 | 9146 ft | 292 kts | 175° |
| 2026-04-21 12:30 | 39.06075 | 23.60564 | 9985 ft | 296 kts | 175° |
| 2026-04-21 12:30 | 39.03969 | 23.60937 | 10380 ft | 317 kts | 175° |
| 2026-04-21 12:31 | 39.01701 | 23.61337 | 10602 ft | 341 kts | 175° |
| 2026-04-21 12:31 | 38.99279 | 23.61766 | 10903 ft | 359 kts | 175° |
| 2026-04-21 12:31 | 38.96777 | 23.62214 | 11516 ft | 366 kts | 175° |
| 2026-04-21 12:31 | 38.94245 | 23.62671 | 12216 ft | 370 kts | 175° |
| 2026-04-21 12:32 | 38.91681 | 23.63136 | 12937 ft | 373 kts | 175° |
| 2026-04-21 12:32 | 38.89098 | 23.63604 | 13651 ft | 377 kts | 175° |
| 2026-04-21 12:32 | 38.86483 | 23.64076 | 14260 ft | 381 kts | 175° |
| 2026-04-21 12:32 | 38.83843 | 23.64551 | 14803 ft | 386 kts | 176° |
| 2026-04-21 12:33 | 38.81160 | 23.65033 | 15368 ft | 390 kts | 176° |
| 2026-04-21 12:33 | 38.78454 | 23.65514 | 15928 ft | 395 kts | 176° |
| 2026-04-21 12:33 | 38.75720 | 23.65997 | 16493 ft | 399 kts | 176° |
| 2026-04-21 12:33 | 38.72956 | 23.66488 | 17078 ft | 403 kts | 176° |
| 2026-04-21 12:34 | 38.70159 | 23.66986 | 17687 ft | 408 kts | 176° |
| 2026-04-21 12:34 | 38.67332 | 23.67489 | 18250 ft | 413 kts | 177° |
| 2026-04-21 12:34 | 38.64477 | 23.67999 | 18707 ft | 416 kts | 176° |
| 2026-04-21 12:34 | 38.61606 | 23.68512 | 19152 ft | 419 kts | 176° |
| 2026-04-21 12:35 | 38.58716 | 23.69027 | 18831 ft | 421 kts | 176° |
| 2026-04-21 12:35 | 38.55827 | 23.69543 | 18443 ft | 413 kts | 176° |
| 2026-04-21 12:35 | 38.53026 | 23.70048 | 18359 ft | 406 kts | 177° |
| 2026-04-21 12:35 | 38.50248 | 23.70542 | 18284 ft | 410 kts | 177° |
| 2026-04-21 12:36 | 38.47369 | 23.71042 | 18086 ft | 426 kts | 177° |
| 2026-04-21 12:36 | 38.44407 | 23.71555 | 17815 ft | 431 kts | 176° |
| 2026-04-21 12:36 | 38.41434 | 23.72080 | 17541 ft | 431 kts | 176° |
| 2026-04-21 12:36 | 38.38463 | 23.72611 | 17277 ft | 429 kts | 176° |
| 2026-04-21 12:37 | 38.35512 | 23.73139 | 17016 ft | 428 kts | 176° |
| 2026-04-21 12:37 | 38.32569 | 23.73662 | 16759 ft | 426 kts | 176° |
| 2026-04-21 12:37 | 38.29640 | 23.74179 | 16505 ft | 424 kts | 176° |
| 2026-04-21 12:37 | 38.26717 | 23.74691 | 16251 ft | 423 kts | 176° |
| 2026-04-21 12:38 | 38.24790 | 23.75027 | 16082 ft | 421 kts | 176° |
| 2026-04-21 12:38 | 38.20912 | 23.75718 | 15744 ft | 421 kts | 173° |
| 2026-04-21 12:38 | 38.19025 | 23.76288 | 15582 ft | 423 kts | 164° |
| 2026-04-21 12:38 | 38.16412 | 23.78008 | 15290 ft | 427 kts | 146° |
| 2026-04-21 12:39 | 38.14211 | 23.80546 | 14579 ft | 427 kts | 136° |
| 2026-04-21 12:39 | 38.12151 | 23.83236 | 14007 ft | 422 kts | 135° |
| 2026-04-21 12:39 | 38.10127 | 23.85889 | 13425 ft | 415 kts | 135° |
| 2026-04-21 12:39 | 38.08135 | 23.88501 | 12824 ft | 409 kts | 135° |
| 2026-04-21 12:40 | 38.06168 | 23.91069 | 12233 ft | 402 kts | 135° |
| 2026-04-21 12:40 | 38.04249 | 23.93577 | 11639 ft | 386 kts | 135° |
| 2026-04-21 12:40 | 38.02432 | 23.95962 | 11090 ft | 366 kts | 135° |
| 2026-04-21 12:40 | 38.00712 | 23.98247 | 10519 ft | 351 kts | 133° |
| 2026-04-21 12:41 | 37.99466 | 24.00830 | 10013 ft | 339 kts | 108° |
| 2026-04-21 12:41 | 37.99180 | 24.03652 | 9988 ft | 311 kts | 84° |
| 2026-04-21 12:41 | 37.99523 | 24.06314 | 9469 ft | 303 kts | 76° |
| 2026-04-21 12:41 | 37.99983 | 24.08909 | 8857 ft | 300 kts | 75° |
| 2026-04-21 12:42 | 38.00508 | 24.11453 | 8229 ft | 296 kts | 66° |
| 2026-04-21 12:42 | 38.01597 | 24.13619 | 7625 ft | 290 kts | 47° |
| 2026-04-21 12:42 | 38.02921 | 24.15537 | 7135 ft | 286 kts | 45° |
| 2026-04-21 12:42 | 38.04268 | 24.17412 | 6929 ft | 287 kts | 45° |
| 2026-04-21 12:43 | 38.05619 | 24.19281 | 6330 ft | 287 kts | 46° |
| 2026-04-21 12:43 | 38.06970 | 24.21137 | 5713 ft | 285 kts | 45° |
| 2026-04-21 12:43 | 38.08332 | 24.22956 | 5113 ft | 283 kts | 41° |
| 2026-04-21 12:43 | 38.09974 | 24.24196 | 4571 ft | 277 kts | 13° |
| 2026-04-21 12:44 | 38.11873 | 24.24323 | 4085 ft | 267 kts | 342° |
| 2026-04-21 12:44 | 38.13485 | 24.23303 | 4002 ft | 265 kts | 317° |
| 2026-04-21 12:44 | 38.14706 | 24.21586 | 4000 ft | 261 kts | 297° |
| 2026-04-21 12:44 | 38.15416 | 24.19494 | 4002 ft | 256 kts | 280° |
| 2026-04-21 12:45 | 38.15566 | 24.17257 | 4002 ft | 255 kts | 263° |
| 2026-04-21 12:45 | 38.15159 | 24.15080 | 4001 ft | 253 kts | 245° |
| 2026-04-21 12:45 | 38.14248 | 24.13193 | 4002 ft | 251 kts | 229° |
| 2026-04-21 12:45 | 38.12945 | 24.11736 | 4001 ft | 246 kts | 217° |
| 2026-04-21 12:46 | 38.11619 | 24.10471 | 4000 ft | 231 kts | 218° |
| 2026-04-21 12:46 | 38.10375 | 24.09281 | 3966 ft | 217 kts | 218° |
| 2026-04-21 12:46 | 38.09187 | 24.08143 | 3763 ft | 211 kts | 218° |
| 2026-04-21 12:46 | 38.08026 | 24.07029 | 3528 ft | 207 kts | 217° |
| 2026-04-21 12:47 | 38.06887 | 24.05938 | 3293 ft | 204 kts | 217° |
| 2026-04-21 12:47 | 38.05766 | 24.04853 | 2996 ft | 202 kts | 217° |
| 2026-04-21 12:47 | 38.04673 | 24.03806 | 2864 ft | 193 kts | 217° |
| 2026-04-21 12:47 | 38.03634 | 24.02812 | 2713 ft | 177 kts | 216° |
| 2026-04-21 12:48 | 38.02721 | 24.01944 | 2546 ft | 152 kts | 216° |
| 2026-04-21 12:48 | 38.01904 | 24.01179 | 2216 ft | 140 kts | 215° |
| 2026-04-21 12:48 | 38.01147 | 24.00453 | 1972 ft | 136 kts | 216° |
| 2026-04-21 12:48 | 38.00403 | 23.99740 | 1748 ft | 133 kts | 213° |
| 2026-04-21 12:49 | 37.99660 | 23.99040 | 1559 ft | 132 kts | 214° |
| 2026-04-21 12:49 | 37.98933 | 23.98342 | 1374 ft | 133 kts | 213° |
| 2026-04-21 12:49 | 37.98201 | 23.97639 | 1170 ft | 133 kts | 214° |
| 2026-04-21 12:49 | 37.97456 | 23.96952 | 1011 ft | 133 kts | 216° |
| 2026-04-21 12:50 | 37.96732 | 23.96242 | 872 ft | 132 kts | 216° |
| 2026-04-21 12:50 | 37.95985 | 23.95531 | 666 ft | 132 kts | 217° |
| 2026-04-21 12:50 | 37.95253 | 23.94839 | 462 ft | 130 kts | 218° |
| 2026-04-21 12:50 | 37.94534 | 23.94156 | 303 ft | 127 kts | 217° |
| 2026-04-21 12:51 | 37.93929 | 23.93580 | 284 ft | 87 kts | 217° |
| 2026-04-21 12:51 | 37.93576 | 23.93249 | 283 ft | 46 kts | 217° |
| 2026-04-21 12:51 | 37.93381 | 23.93145 | 279 ft | 25 kts | 188° |
| 2026-04-21 12:51 | 37.93294 | 23.93130 | 277 ft | 0 kts | 188° |
| 2026-04-21 12:52 | 37.93282 | 23.93131 | 277 ft | 3 kts | 166° |
| 2026-04-21 12:52 | 37.93254 | 23.93179 | 277 ft | 10 kts | 98° |
| 2026-04-21 12:52 | 37.93305 | 23.93263 | 281 ft | 16 kts | 36° |
| 2026-04-21 12:53 | 37.93409 | 23.93358 | 279 ft | 21 kts | 34° |
| 2026-04-21 12:53 | 37.93538 | 23.93487 | 283 ft | 25 kts | 36° |
| 2026-04-21 12:53 | 37.93682 | 23.93622 | 282 ft | 27 kts | 37° |
| 2026-04-21 12:53 | 37.93837 | 23.93768 | 286 ft | 28 kts | 37° |
| 2026-04-21 12:54 | 37.93999 | 23.93922 | 285 ft | 29 kts | 37° |
| 2026-04-21 12:54 | 37.94151 | 23.94068 | 287 ft | 26 kts | 37° |
| 2026-04-21 12:54 | 37.94296 | 23.94206 | 294 ft | 27 kts | 37° |
| 2026-04-21 12:54 | 37.94449 | 23.94352 | 294 ft | 28 kts | 36° |
| 2026-04-21 12:55 | 37.94612 | 23.94504 | 293 ft | 28 kts | 36° |
| 2026-04-21 12:55 | 37.94690 | 23.94618 | 296 ft | 15 kts | 98° |
| 2026-04-21 12:55 | 37.94616 | 23.94744 | 296 ft | 24 kts | 126° |
| 2026-04-21 12:55 | 37.94506 | 23.94928 | 289 ft | 28 kts | 127° |
| 2026-04-21 12:56 | 37.94389 | 23.95124 | 285 ft | 26 kts | 127° |
| 2026-04-21 12:56 | 37.94269 | 23.95321 | 281 ft | 29 kts | 128° |
| 2026-04-21 12:56 | 37.94158 | 23.95509 | 278 ft | 16 kts | 127° |
| 2026-04-21 12:56 | 37.94098 | 23.95558 | 278 ft | 11 kts | 184° |
| 2026-04-21 12:57 | 37.94015 | 23.95485 | 278 ft | 18 kts | 215° |
| 2026-04-21 12:57 | 37.93913 | 23.95384 | 279 ft | 14 kts | 228° |
| 2026-04-21 12:57 | 37.93937 | 23.95270 | 280 ft | 14 kts | 307° |
| 2026-04-21 12:57 | 37.94000 | 23.95270 | 280 ft | 7 kts | 26° |
| 2026-04-21 12:58 | 37.94022 | 23.95291 | 282 ft | 2 kts | 39° |
| 2026-04-21 12:58 | 37.94025 | 23.95294 | 281 ft | 0 kts | 39° |